createdAt,value
2022-07-25T00:00:11.089Z,9.50
2022-07-25T00:02:59.083Z,9.80
2022-07-25T00:05:27.203Z,9.10
2022-07-25T00:07:55.228Z,10.70
2022-07-25T00:10:23.987Z,9.60
2022-07-25T00:12:52.186Z,9.20
2022-07-25T00:15:20.400Z,10.10
2022-07-25T00:17:48.470Z,11.40
2022-07-25T00:20:17.021Z,9.90
2022-07-25T00:22:45.112Z,8.90
2022-07-25T00:25:13.152Z,10.80
2022-07-25T00:27:41.329Z,9.20
2022-07-25T00:30:10.677Z,9.60
2022-07-25T00:32:38.695Z,8.50
2022-07-25T00:35:07.000Z,9.10
2022-07-25T00:37:35.041Z,8.90
2022-07-25T00:40:04.111Z,8.00
2022-07-25T00:42:33.026Z,7.90
2022-07-25T00:45:01.096Z,8.20
2022-07-25T00:47:29.210Z,8.40
2022-07-25T00:49:57.445Z,8.60
2022-07-25T00:52:25.971Z,8.80
2022-07-25T00:54:57.066Z,8.20
2022-07-25T00:57:25.165Z,7.90
2022-07-25T00:59:53.283Z,7.70
2022-07-25T01:02:21.468Z,7.30
2022-07-25T01:04:50.264Z,7.20
2022-07-25T01:07:18.586Z,7.40
2022-07-25T01:09:47.430Z,10.10
2022-07-25T01:12:15.605Z,7.50
2022-07-25T01:14:43.676Z,7.50
2022-07-25T01:17:13.557Z,7.30
2022-07-25T01:19:41.621Z,7.10
2022-07-25T01:22:09.732Z,8.40
2022-07-25T01:24:39.544Z,7.00
2022-07-25T01:27:07.661Z,6.70
2022-07-25T01:29:45.248Z,6.40
2022-07-25T01:32:13.697Z,7.30
2022-07-25T01:34:41.698Z,6.80
2022-07-25T01:37:09.827Z,6.90
2022-07-25T01:39:37.897Z,6.80
2022-07-25T01:42:06.545Z,6.50
2022-07-25T01:44:34.651Z,6.90
2022-07-25T01:47:02.595Z,6.60
2022-07-25T01:49:30.836Z,7.50
2022-07-25T01:51:58.820Z,7.50
2022-07-25T01:54:27.035Z,6.90
2022-07-25T01:56:55.045Z,6.60
2022-07-25T01:59:23.041Z,7.30
2022-07-25T02:01:51.141Z,6.40
2022-07-25T02:04:19.544Z,6.80
2022-07-25T02:06:47.888Z,7.20
2022-07-25T02:09:16.043Z,7.20
2022-07-25T02:11:44.254Z,7.80
2022-07-25T02:14:12.368Z,7.30
2022-07-25T02:16:40.484Z,6.80
2022-07-25T02:19:08.714Z,8.40
2022-07-25T02:21:37.040Z,6.30
2022-07-25T02:24:05.410Z,7.20
2022-07-25T02:26:34.106Z,6.10
2022-07-25T02:29:02.278Z,8.40
2022-07-25T02:31:30.448Z,7.90
2022-07-25T02:33:58.628Z,6.70
2022-07-25T02:36:26.731Z,6.40
2022-07-25T02:38:54.714Z,7.50
2022-07-25T02:41:22.984Z,8.20
2022-07-25T02:43:51.056Z,6.50
2022-07-25T02:46:19.578Z,7.10
2022-07-25T02:48:48.048Z,7.30
2022-07-25T02:51:16.187Z,6.70
2022-07-25T02:53:57.014Z,8.40
2022-07-25T02:56:29.776Z,8.60
2022-07-25T02:58:58.577Z,8.30
2022-07-25T03:01:27.154Z,7.50
2022-07-25T03:03:55.350Z,7.00
2022-07-25T03:06:23.450Z,7.30
2022-07-25T03:08:51.601Z,8.00
2022-07-25T03:11:19.897Z,7.70
2022-07-25T03:13:48.130Z,8.00
2022-07-25T03:16:16.857Z,6.80
2022-07-25T03:18:45.092Z,8.20
2022-07-25T03:21:13.157Z,8.80
2022-07-25T03:23:41.843Z,7.80
2022-07-25T03:26:10.331Z,7.90
2022-07-25T03:28:38.309Z,9.00
2022-07-25T03:31:06.488Z,8.20
2022-07-25T03:33:35.197Z,8.30
2022-07-25T03:36:03.818Z,9.30
2022-07-25T03:38:31.921Z,9.30
2022-07-25T03:41:00.079Z,9.30
2022-07-25T03:43:28.459Z,8.20
2022-07-25T03:45:56.684Z,8.40
2022-07-25T03:48:24.957Z,8.70
2022-07-25T03:50:53.092Z,9.10
2022-07-25T03:53:21.078Z,7.90
2022-07-25T03:55:49.428Z,8.20
2022-07-25T03:58:17.751Z,8.30
2022-07-25T04:00:45.867Z,8.00
2022-07-25T04:03:14.762Z,8.40
2022-07-25T04:05:47.407Z,7.90
2022-07-25T04:08:15.930Z,8.40
2022-07-25T04:10:43.941Z,7.80
2022-07-25T04:13:12.114Z,7.90
2022-07-25T04:15:40.336Z,6.90
2022-07-25T04:18:09.184Z,6.90
2022-07-25T04:20:42.467Z,6.90
2022-07-25T04:23:10.550Z,7.20
2022-07-25T04:25:38.761Z,6.40
2022-07-25T04:28:06.835Z,6.70
2022-07-25T04:30:35.005Z,6.10
2022-07-25T04:33:03.107Z,6.10
2022-07-25T04:35:31.187Z,5.60
2022-07-25T04:37:59.215Z,6.30
2022-07-25T04:40:27.385Z,6.90
2022-07-25T04:42:55.561Z,5.60
2022-07-25T04:45:24.430Z,5.60
2022-07-25T04:47:52.932Z,6.00
2022-07-25T04:50:24.851Z,5.50
2022-07-25T04:52:53.376Z,5.20
2022-07-25T04:55:21.754Z,7.40
2022-07-25T04:57:49.928Z,6.70
2022-07-25T05:00:18.522Z,5.60
2022-07-25T05:02:46.873Z,9.20
2022-07-25T05:05:20.926Z,5.90
2022-07-25T05:07:55.718Z,5.20
2022-07-25T05:10:24.340Z,5.60
2022-07-25T05:12:52.422Z,8.40
2022-07-25T05:15:21.059Z,5.30
2022-07-25T05:17:49.080Z,4.90
2022-07-25T05:20:17.304Z,5.60
2022-07-25T05:22:45.422Z,5.70
2022-07-25T05:25:13.660Z,7.10
2022-07-25T05:27:42.133Z,6.90
2022-07-25T05:30:11.878Z,4.70
2022-07-25T05:32:41.548Z,9.10
2022-07-25T05:35:10.762Z,4.10
2022-07-25T05:37:39.176Z,4.80
2022-07-25T05:40:08.675Z,3.90
2022-07-25T05:42:36.913Z,5.40
2022-07-25T05:45:05.683Z,5.10
2022-07-25T05:47:33.847Z,5.10
2022-07-25T05:50:02.654Z,3.70
2022-07-25T05:52:30.843Z,4.40
2022-07-25T05:54:59.014Z,4.50
2022-07-25T05:57:27.803Z,4.20
2022-07-25T05:59:55.823Z,3.90
2022-07-25T06:02:24.220Z,4.20
2022-07-25T06:04:52.916Z,5.30
2022-07-25T06:07:20.952Z,4.90
2022-07-25T06:09:49.159Z,4.70
2022-07-25T06:12:17.510Z,4.10
2022-07-25T06:14:45.709Z,4.30
2022-07-25T06:17:13.906Z,3.90
2022-07-25T06:19:41.916Z,4.30
2022-07-25T06:22:11.479Z,5.70
2022-07-25T06:24:39.627Z,4.30
2022-07-25T06:27:08.688Z,5.30
2022-07-25T06:29:38.948Z,3.70
2022-07-25T06:32:06.982Z,4.10
2022-07-25T06:34:34.983Z,4.50
2022-07-25T06:37:03.141Z,3.90
2022-07-25T06:39:31.279Z,4.30
2022-07-25T06:41:59.965Z,4.10
2022-07-25T06:44:35.710Z,4.50
2022-07-25T06:47:04.451Z,4.20
2022-07-25T06:49:32.454Z,4.40
2022-07-25T06:52:00.489Z,5.60
2022-07-25T06:54:28.488Z,5.30
2022-07-25T06:56:56.521Z,3.80
2022-07-25T06:59:24.596Z,4.30
2022-07-25T07:01:52.772Z,6.00
2022-07-25T07:04:20.945Z,4.70
2022-07-25T07:06:48.967Z,4.80
2022-07-25T07:09:17.333Z,4.60
2022-07-25T07:11:45.565Z,4.90
2022-07-25T07:14:13.743Z,4.90
2022-07-25T07:16:42.560Z,5.20
2022-07-25T07:19:14.856Z,4.50
2022-07-25T07:21:43.461Z,4.50
2022-07-25T07:24:24.205Z,4.60
2022-07-25T07:26:54.629Z,4.50
2022-07-25T07:29:22.762Z,4.50
2022-07-25T07:31:50.984Z,5.60
2022-07-25T07:34:19.251Z,4.00
2022-07-25T07:36:47.478Z,3.90
2022-07-25T07:39:16.734Z,4.30
2022-07-25T07:41:45.185Z,4.10
2022-07-25T07:44:13.282Z,3.70
2022-07-25T07:46:41.433Z,4.00
2022-07-25T07:49:10.089Z,3.80
2022-07-25T07:51:38.824Z,4.10
2022-07-25T07:54:25.634Z,5.10
2022-07-25T07:56:53.663Z,4.20
2022-07-25T07:59:22.157Z,4.20
2022-07-25T08:01:50.338Z,4.70
2022-07-25T08:04:18.511Z,4.20
2022-07-25T08:06:46.545Z,4.70
2022-07-25T08:09:14.617Z,4.70
2022-07-25T08:11:42.985Z,3.70
2022-07-25T08:14:11.373Z,4.10
2022-07-25T08:16:39.536Z,4.10
2022-07-25T08:19:07.856Z,4.40
2022-07-25T08:21:36.207Z,4.60
2022-07-25T08:24:05.109Z,4.80
2022-07-25T08:26:37.337Z,4.50
2022-07-25T08:29:18.864Z,5.10
2022-07-25T08:31:48.095Z,4.40
2022-07-25T08:34:17.049Z,5.10
2022-07-25T08:36:45.232Z,4.30
2022-07-25T08:39:13.772Z,4.70
2022-07-25T08:41:42.422Z,6.00
2022-07-25T08:44:11.907Z,6.40
2022-07-25T08:46:42.218Z,4.70
2022-07-25T08:49:10.871Z,5.10
2022-07-25T08:51:40.094Z,5.10
2022-07-25T08:54:09.748Z,8.80
2022-07-25T08:56:38.483Z,4.90
2022-07-25T08:59:06.840Z,5.20
2022-07-25T09:01:35.260Z,4.80
2022-07-25T09:04:04.627Z,5.20
2022-07-25T09:06:33.220Z,4.20
2022-07-25T09:09:05.365Z,4.20
2022-07-25T09:11:37.121Z,3.80
2022-07-25T09:14:08.764Z,3.50
2022-07-25T09:16:44.529Z,3.20
2022-07-25T09:19:19.963Z,4.80
2022-07-25T09:22:03.486Z,3.30
2022-07-25T09:24:33.049Z,3.20
2022-07-25T09:27:08.883Z,4.40
2022-07-25T09:29:39.836Z,3.40
2022-07-25T09:32:28.159Z,3.10
2022-07-25T09:34:56.417Z,4.80
2022-07-25T09:37:27.357Z,3.20
2022-07-25T09:39:55.427Z,3.30
2022-07-25T09:42:29.444Z,3.50
2022-07-25T09:45:31.451Z,3.50
2022-07-25T09:48:05.155Z,4.10
2022-07-25T09:50:33.676Z,3.30
2022-07-25T09:53:02.659Z,4.10
2022-07-25T09:55:31.605Z,3.60
2022-07-25T09:57:59.667Z,3.30
2022-07-25T10:00:29.567Z,3.50
2022-07-25T10:03:16.569Z,3.50
2022-07-25T10:06:05.472Z,3.70
2022-07-25T10:08:38.315Z,3.70
2022-07-25T10:11:18.360Z,4.60
2022-07-25T10:13:46.740Z,3.10
2022-07-25T10:16:25.677Z,3.80
2022-07-25T10:18:55.899Z,4.20
2022-07-25T10:21:28.051Z,3.00
2022-07-25T10:24:03.062Z,3.30
2022-07-25T10:26:31.683Z,3.20
2022-07-25T10:29:01.803Z,3.70
2022-07-25T10:31:32.616Z,2.50
2022-07-25T10:34:13.901Z,3.10
2022-07-25T10:36:56.296Z,2.70
2022-07-25T10:39:24.423Z,2.90
2022-07-25T10:42:00.463Z,3.00
2022-07-25T10:44:41.204Z,2.70
2022-07-25T10:47:12.341Z,2.70
2022-07-25T10:50:00.265Z,3.10
2022-07-25T10:52:30.884Z,2.60
2022-07-25T10:55:00.866Z,2.60
2022-07-25T10:57:32.019Z,2.60
2022-07-25T11:00:08.371Z,2.40
2022-07-25T11:02:36.611Z,4.60
2022-07-25T11:05:05.567Z,2.70
2022-07-25T11:07:36.443Z,2.80
2022-07-25T11:10:05.914Z,3.60
2022-07-25T11:12:34.113Z,2.20
2022-07-25T11:15:05.713Z,3.40
2022-07-25T11:17:34.658Z,2.60
2022-07-25T11:20:08.503Z,3.00
2022-07-25T11:22:37.452Z,4.60
2022-07-25T11:25:14.459Z,2.60
2022-07-25T11:27:42.632Z,4.60
2022-07-25T11:30:17.063Z,4.60
2022-07-25T11:32:57.077Z,2.50
2022-07-25T11:35:31.794Z,2.50
2022-07-25T11:38:02.604Z,2.80
2022-07-25T11:40:32.861Z,2.10
2022-07-25T11:43:01.112Z,2.80
2022-07-25T11:45:33.793Z,3.20
2022-07-25T11:48:08.340Z,3.00
2022-07-25T11:50:38.971Z,3.80
2022-07-25T11:53:09.707Z,2.10
2022-07-25T11:55:41.041Z,2.50
2022-07-25T11:58:11.543Z,3.50
2022-07-25T12:00:41.878Z,2.40
2022-07-25T12:03:17.197Z,3.30
2022-07-25T12:05:50.021Z,2.90
2022-07-25T12:08:20.879Z,2.30
2022-07-25T12:10:55.121Z,2.10
2022-07-25T12:13:28.798Z,2.60
2022-07-25T12:15:58.172Z,2.40
2022-07-25T12:18:26.721Z,2.80
2022-07-25T12:20:55.409Z,2.30
2022-07-25T12:23:23.472Z,2.80
2022-07-25T12:25:51.731Z,3.30
2022-07-25T12:28:19.967Z,2.30
2022-07-25T12:30:55.949Z,2.60
2022-07-25T12:33:24.910Z,2.40
2022-07-25T12:35:53.001Z,2.90
2022-07-25T12:38:21.357Z,3.80
2022-07-25T12:40:49.797Z,2.60
2022-07-25T12:43:18.418Z,2.40
2022-07-25T12:45:46.663Z,2.60
2022-07-25T12:48:15.620Z,3.40
2022-07-25T12:50:44.772Z,2.60
2022-07-25T12:53:13.790Z,2.10
2022-07-25T12:55:42.093Z,2.80
2022-07-25T12:58:10.249Z,2.40
2022-07-25T13:00:38.400Z,2.70
2022-07-25T13:03:06.793Z,3.70
2022-07-25T13:05:34.904Z,4.50
2022-07-25T13:08:06.602Z,2.40
2022-07-25T13:10:34.873Z,3.70
2022-07-25T13:13:03.939Z,2.50
2022-07-25T13:15:32.015Z,2.80
2022-07-25T13:18:00.111Z,6.30
2022-07-25T13:20:28.791Z,2.90
2022-07-25T13:22:57.526Z,2.40
2022-07-25T13:25:25.758Z,4.80
2022-07-25T13:27:53.825Z,3.00
2022-07-25T13:30:22.100Z,3.00
2022-07-25T13:32:50.068Z,2.40
2022-07-25T13:35:20.706Z,2.40
2022-07-25T13:37:49.255Z,3.10
2022-07-25T13:40:17.298Z,3.00
2022-07-25T13:42:45.488Z,3.00
2022-07-25T13:45:13.694Z,2.40
2022-07-25T13:47:41.972Z,2.60
2022-07-25T13:50:10.575Z,3.00
2022-07-25T13:52:38.680Z,2.30
2022-07-25T13:55:07.559Z,3.00
2022-07-25T13:57:35.693Z,3.50
2022-07-25T14:00:05.829Z,2.80
2022-07-25T14:02:34.027Z,2.80
2022-07-25T14:05:04.376Z,2.40
2022-07-25T14:07:32.928Z,2.70
2022-07-25T14:10:01.134Z,3.70
2022-07-25T14:12:30.253Z,2.30
2022-07-25T14:14:58.529Z,2.60
2022-07-25T14:17:30.345Z,2.90
2022-07-25T14:19:58.931Z,2.00
2022-07-25T14:22:27.239Z,3.30
2022-07-25T14:24:55.381Z,3.60
2022-07-25T14:27:23.932Z,2.10
2022-07-25T14:29:52.021Z,3.30
2022-07-25T14:32:20.347Z,2.10
2022-07-25T14:34:48.443Z,2.50
2022-07-25T14:37:16.531Z,2.70
2022-07-25T14:39:45.554Z,2.10
2022-07-25T14:42:13.989Z,2.30
2022-07-25T14:44:42.101Z,3.10
2022-07-25T14:47:12.805Z,2.20
2022-07-25T14:49:41.239Z,2.50
2022-07-25T14:52:11.666Z,2.10
2022-07-25T14:54:40.710Z,2.50
2022-07-25T14:57:09.825Z,3.40
2022-07-25T14:59:37.933Z,2.50
2022-07-25T15:02:06.007Z,5.40
2022-07-25T15:04:34.094Z,2.80
2022-07-25T15:07:02.242Z,3.80
2022-07-25T15:09:30.563Z,2.20
2022-07-25T15:11:58.556Z,2.40
2022-07-25T15:14:26.553Z,2.10
2022-07-25T15:16:54.750Z,2.40
2022-07-25T15:19:22.813Z,2.50
2022-07-25T15:21:50.971Z,4.70
2022-07-25T15:24:19.041Z,5.00
2022-07-25T15:26:47.113Z,2.20
2022-07-25T15:29:20.820Z,2.90
2022-07-25T15:31:49.235Z,3.90
2022-07-25T15:34:17.544Z,3.90
2022-07-25T15:36:45.741Z,2.90
2022-07-25T15:39:13.914Z,2.50
2022-07-25T15:41:41.990Z,2.60
2022-07-25T15:44:10.063Z,2.50
2022-07-25T15:46:40.372Z,4.90
2022-07-25T15:49:08.968Z,2.70
2022-07-25T15:51:37.343Z,3.30
2022-07-25T15:54:05.614Z,2.60
2022-07-25T15:56:34.719Z,3.40
2022-07-25T15:59:03.375Z,3.60
2022-07-25T16:01:31.404Z,2.70
2022-07-25T16:04:01.147Z,2.50
2022-07-25T16:06:29.617Z,3.40
2022-07-25T16:08:57.688Z,2.80
2022-07-25T16:11:25.868Z,2.60
2022-07-25T16:13:54.096Z,4.20
2022-07-25T16:16:22.319Z,3.40
2022-07-25T16:18:50.445Z,2.50
2022-07-25T16:21:18.588Z,2.10
2022-07-25T16:23:46.973Z,2.70
2022-07-25T16:26:15.139Z,2.60
2022-07-25T16:28:43.925Z,3.80
2022-07-25T16:31:12.048Z,2.60
2022-07-25T16:33:40.172Z,3.70
2022-07-25T16:36:08.836Z,2.60
2022-07-25T16:38:37.130Z,2.50
2022-07-25T16:41:05.407Z,4.70
2022-07-25T16:43:33.725Z,2.80
2022-07-25T16:46:02.522Z,3.70
2022-07-25T16:48:30.926Z,3.20
2022-07-25T16:50:59.119Z,4.20
2022-07-25T16:53:27.363Z,2.60
2022-07-25T16:55:55.787Z,3.30
2022-07-25T16:58:23.869Z,4.50
2022-07-25T17:00:51.851Z,3.20
2022-07-25T17:03:20.064Z,3.40
2022-07-25T17:05:51.798Z,3.70
2022-07-25T17:08:20.012Z,3.00
2022-07-25T17:10:48.036Z,3.10
2022-07-25T17:13:16.038Z,2.60
2022-07-25T17:15:45.609Z,3.40
2022-07-25T17:18:14.388Z,2.70
2022-07-25T17:20:42.973Z,3.30
2022-07-25T17:23:11.454Z,4.30
2022-07-25T17:25:41.835Z,2.70
2022-07-25T17:28:11.720Z,2.80
2022-07-25T17:30:39.732Z,3.00
2022-07-25T17:33:08.148Z,2.90
2022-07-25T17:35:36.207Z,2.20
2022-07-25T17:38:05.717Z,2.30
2022-07-25T17:40:34.394Z,3.40
2022-07-25T17:43:02.404Z,3.20
2022-07-25T17:45:30.906Z,2.30
2022-07-25T17:47:59.078Z,2.80
2022-07-25T17:50:29.470Z,6.10
2022-07-25T17:52:59.758Z,2.80
2022-07-25T17:55:28.784Z,2.50
2022-07-25T17:57:59.692Z,4.00
2022-07-25T18:00:27.930Z,2.70
2022-07-25T18:02:56.323Z,4.00
2022-07-25T18:05:24.793Z,2.60
2022-07-25T18:07:53.925Z,3.10
2022-07-25T18:10:22.178Z,3.00
2022-07-25T18:12:50.749Z,5.50
2022-07-25T18:15:18.796Z,2.90
2022-07-25T18:17:48.181Z,4.30
2022-07-25T18:20:17.029Z,2.90
2022-07-25T18:22:45.509Z,3.50
2022-07-25T18:25:14.826Z,3.70
2022-07-25T18:27:44.831Z,3.20
2022-07-25T18:30:15.220Z,3.80
2022-07-25T18:32:43.320Z,3.20
2022-07-25T18:35:11.604Z,4.40
2022-07-25T18:37:40.105Z,4.30
2022-07-25T18:40:09.516Z,3.10
2022-07-25T18:42:38.453Z,4.00
2022-07-25T18:45:07.455Z,3.20
2022-07-25T18:47:35.568Z,3.30
2022-07-25T18:50:04.771Z,3.50
2022-07-25T18:52:36.218Z,2.50
2022-07-25T18:55:07.256Z,3.20
2022-07-25T18:57:35.463Z,3.40
2022-07-25T19:00:07.020Z,3.30
2022-07-25T19:02:35.090Z,3.70
2022-07-25T19:05:03.301Z,3.30
2022-07-25T19:07:31.639Z,3.30
2022-07-25T19:09:59.811Z,4.10
2022-07-25T19:12:28.392Z,3.50
2022-07-25T19:14:56.663Z,4.90
2022-07-25T19:17:25.292Z,6.10
2022-07-25T19:19:53.515Z,4.00
2022-07-25T19:22:21.649Z,2.90
2022-07-25T19:24:49.867Z,4.00
2022-07-25T19:27:19.145Z,3.70
2022-07-25T19:29:47.168Z,3.90
2022-07-25T19:32:16.267Z,3.50
2022-07-25T19:34:46.411Z,6.00
2022-07-25T19:37:14.522Z,4.10
2022-07-25T19:39:42.734Z,4.20
2022-07-25T19:42:12.407Z,4.00
2022-07-25T19:44:40.572Z,4.90
2022-07-25T19:47:11.825Z,4.50
2022-07-25T19:49:40.577Z,4.70
2022-07-25T19:52:09.749Z,5.30
2022-07-25T19:54:38.185Z,5.30
2022-07-25T19:57:06.601Z,5.10
2022-07-25T19:59:34.836Z,6.90
2022-07-25T20:02:04.200Z,4.30
2022-07-25T20:04:32.356Z,5.20
2022-07-25T20:07:02.461Z,5.10
2022-07-25T20:09:31.392Z,4.90
2022-07-25T20:11:59.645Z,5.20
2022-07-25T20:14:27.745Z,4.90
2022-07-25T20:16:56.120Z,4.70
2022-07-25T20:19:24.351Z,4.40
2022-07-25T20:21:52.692Z,4.80
2022-07-25T20:24:21.742Z,7.10
2022-07-25T20:26:50.224Z,4.30
2022-07-25T20:29:18.356Z,5.30
2022-07-25T20:31:46.715Z,5.00
2022-07-25T20:34:15.952Z,4.40
2022-07-25T20:36:47.810Z,4.60
2022-07-25T20:39:16.156Z,4.10
2022-07-25T20:41:44.613Z,5.80
2022-07-25T20:44:12.990Z,4.30
2022-07-25T20:46:41.178Z,4.50
2022-07-25T20:49:09.992Z,3.90
2022-07-25T20:51:40.604Z,5.30
2022-07-25T20:54:09.434Z,4.00
2022-07-25T20:56:37.773Z,6.50
2022-07-25T20:59:06.158Z,5.10
2022-07-25T21:01:34.596Z,4.50
2022-07-25T21:04:07.270Z,3.40
2022-07-25T21:06:36.760Z,3.80
2022-07-25T21:09:06.259Z,3.80
2022-07-25T21:11:38.166Z,3.80
2022-07-25T21:14:07.334Z,3.90
2022-07-25T21:16:35.805Z,6.90
2022-07-25T21:19:04.010Z,6.60
2022-07-25T21:21:32.494Z,3.70
2022-07-25T21:24:01.653Z,4.70
2022-07-25T21:26:29.971Z,3.40
2022-07-25T21:28:58.143Z,3.70
2022-07-25T21:31:26.242Z,3.60
2022-07-25T21:33:54.233Z,3.30
2022-07-25T21:36:22.610Z,4.20
2022-07-25T21:38:50.834Z,3.40
2022-07-25T21:41:19.008Z,4.00
2022-07-25T21:43:48.296Z,3.50
2022-07-25T21:46:16.639Z,3.90
2022-07-25T21:49:03.583Z,4.00
2022-07-25T21:51:40.296Z,3.40
2022-07-25T21:54:09.200Z,3.50
2022-07-25T21:56:37.637Z,3.00
2022-07-25T21:59:07.131Z,2.90
2022-07-25T22:01:35.676Z,3.90
2022-07-25T22:04:18.187Z,3.40
2022-07-25T22:06:46.739Z,3.70
2022-07-25T22:09:14.893Z,5.50
2022-07-25T22:11:46.221Z,3.80
2022-07-25T22:14:15.554Z,3.00
2022-07-25T22:16:43.885Z,3.20
2022-07-25T22:19:12.550Z,3.20
2022-07-25T22:21:41.697Z,3.40
2022-07-25T22:24:10.728Z,3.20
2022-07-25T22:26:38.971Z,4.50
2022-07-25T22:29:07.502Z,3.00
2022-07-25T22:31:35.832Z,3.70
2022-07-25T22:34:03.981Z,3.10
2022-07-25T22:36:32.161Z,3.00
2022-07-25T22:39:00.180Z,3.00
2022-07-25T22:41:28.645Z,4.00
2022-07-25T22:43:59.972Z,3.40
2022-07-25T22:46:35.080Z,2.90
2022-07-25T22:49:04.390Z,2.90
2022-07-25T22:51:32.878Z,3.10
2022-07-25T22:54:01.472Z,3.20
2022-07-25T22:56:29.902Z,4.00
2022-07-25T22:58:58.010Z,3.20
2022-07-25T23:01:26.290Z,3.40
2022-07-25T23:03:54.838Z,3.30
2022-07-25T23:06:22.980Z,3.40
2022-07-25T23:08:51.357Z,3.50
2022-07-25T23:11:19.667Z,3.30
2022-07-25T23:13:47.725Z,3.20
2022-07-25T23:16:16.225Z,3.50
2022-07-25T23:18:45.335Z,3.10
2022-07-25T23:21:13.517Z,4.80
2022-07-25T23:23:41.606Z,3.30
2022-07-25T23:26:09.873Z,3.30
2022-07-25T23:28:38.031Z,5.80
2022-07-25T23:31:06.358Z,3.50
2022-07-25T23:33:34.579Z,2.90
2022-07-25T23:36:02.707Z,3.10
2022-07-25T23:38:30.830Z,2.90
2022-07-25T23:40:58.885Z,4.00
2022-07-25T23:43:56.896Z,2.80
2022-07-25T23:46:14.977Z,2.80
2022-07-25T23:48:43.458Z,2.70
2022-07-25T23:51:11.655Z,3.10
2022-07-25T23:53:40.035Z,3.90
2022-07-25T23:56:08.328Z,3.20
2022-07-25T23:58:36.380Z,2.80
